Time;durP1;ratioP1;P1;durP2;ratioP2;P2;SDS_P1;SDS_P2;PMS_P1;PMS_P2;Temp;Humidity;BMP_temperature;BMP_pressure;BME280_temperature;BME280_humidity;BME280_pressure;Samples;Min_cycle;Max_cycle;Signal;HPM_P1;HPM_P2
2023/07/27 00:00:09;;;;;;;13.83;9.70;;;12.20;99.90;;;;;;4948886;28;20430;-92
2023/07/27 00:02:35;;;;;;;13.25;9.77;;;12.10;99.90;;;;;;4916894;28;20495;-92
2023/07/27 00:05:05;;;;;;;14.07;9.77;;;12.40;99.90;;;;;;4950041;28;20452;-93
2023/07/27 00:07:30;;;;;;;11.50;9.30;;;12.10;99.90;;;;;;4915956;29;20513;-91
2023/07/27 00:09:56;;;;;;;12.20;9.27;;;12.10;99.90;;;;;;4950195;28;20940;-91
2023/07/27 00:12:22;;;;;;;13.43;9.77;;;12.10;99.90;;;;;;4947059;28;20933;-92
2023/07/27 00:14:49;;;;;;;14.57;10.38;;;12.20;99.90;;;;;;4918486;29;20425;-92
2023/07/27 00:17:14;;;;;;;13.90;9.10;;;12.20;99.90;;;;;;4916393;29;20895;-93
2023/07/27 00:19:40;;;;;;;13.88;10.30;;;12.60;99.90;;;;;;4916921;29;20473;-92
2023/07/27 00:22:06;;;;;;;13.85;9.63;;;12.30;99.90;;;;;;4949345;29;20773;-93
2023/07/27 00:24:32;;;;;;;14.23;9.23;;;13.00;99.90;;;;;;4915603;29;20437;-92
2023/07/27 00:26:57;;;;;;;13.38;8.77;;;12.40;99.90;;;;;;4917871;29;21516;-92
2023/07/27 00:29:23;;;;;;;14.93;9.77;;;12.40;99.90;;;;;;4915425;29;20413;-92
2023/07/27 00:31:50;;;;;;;13.40;9.50;;;12.20;99.90;;;;;;4917765;29;20507;-91
2023/07/27 00:34:16;;;;;;;13.45;9.25;;;11.90;99.90;;;;;;4915648;29;20418;-91
2023/07/27 00:36:42;;;;;;;13.80;9.55;;;12.30;99.90;;;;;;4917518;29;20418;-92
2023/07/27 00:39:07;;;;;;;14.25;9.68;;;12.50;99.90;;;;;;4917004;29;20418;-92
2023/07/27 00:41:33;;;;;;;14.90;9.43;;;12.40;99.90;;;;;;4916258;29;20424;-92
2023/07/27 00:43:59;;;;;;;12.45;9.40;;;12.50;99.90;;;;;;4917687;29;20429;-92
2023/07/27 00:46:25;;;;;;;14.03;9.47;;;11.80;99.90;;;;;;4915466;29;20409;-92
2023/07/27 00:48:51;;;;;;;13.68;9.43;;;12.20;99.90;;;;;;4917557;29;20410;-92
2023/07/27 00:51:17;;;;;;;14.80;10.03;;;12.60;99.90;;;;;;4915182;29;20469;-93
2023/07/27 00:53:43;;;;;;;12.30;8.88;;;12.40;99.90;;;;;;4949478;29;20453;-92
2023/07/27 00:56:09;;;;;;;11.93;9.00;;;12.00;99.90;;;;;;4915932;29;20410;-92
2023/07/27 00:58:36;;;;;;;12.45;9.52;;;12.50;99.90;;;;;;4916950;29;20421;-90
2023/07/27 01:01:03;;;;;;;12.93;9.43;;;12.50;99.90;;;;;;4917251;29;20405;-92
2023/07/27 01:03:28;;;;;;;11.77;8.98;;;12.50;99.90;;;;;;4914789;29;20446;-90
2023/07/27 01:05:54;;;;;;;13.87;9.00;;;12.20;99.90;;;;;;4917595;29;20414;-91
2023/07/27 01:08:20;;;;;;;12.33;8.93;;;12.00;99.90;;;;;;4914879;29;20449;-91
2023/07/27 01:11:00;;;;;;;12.02;8.55;;;12.70;99.90;;;;;;4948995;29;21205;-92
2023/07/27 01:13:44;;;;;;;12.02;9.50;;;12.30;99.90;;;;;;4915480;29;20418;-93
2023/07/27 01:16:15;;;;;;;12.88;9.23;;;12.30;99.90;;;;;;4915537;29;20429;-91
2023/07/27 01:18:48;;;;;;;12.13;9.32;;;12.20;99.90;;;;;;4917417;29;20476;-93
2023/07/27 01:21:18;;;;;;;12.00;8.90;;;12.60;99.90;;;;;;4914898;29;20448;-91
2023/07/27 01:23:49;;;;;;;13.57;9.25;;;12.40;99.90;;;;;;4916934;29;20437;-91
2023/07/27 01:26:15;;;;;;;11.57;8.80;;;12.30;99.90;;;;;;4915620;29;20450;-92
2023/07/27 01:28:46;;;;;;;13.13;8.83;;;12.30;99.90;;;;;;4916762;29;20484;-92
2023/07/27 01:31:21;;;;;;;11.63;8.93;;;12.50;99.90;;;;;;4917827;29;20426;-92
2023/07/27 01:33:57;;;;;;;11.90;8.85;;;12.60;99.90;;;;;;4918957;29;20465;-92
2023/07/27 01:36:26;;;;;;;13.77;9.00;;;12.30;99.90;;;;;;4921042;29;20414;-92
2023/07/27 01:38:54;;;;;;;12.18;8.50;;;12.60;99.90;;;;;;4918473;29;20513;-92
2023/07/27 01:41:23;;;;;;;10.70;8.17;;;12.00;99.90;;;;;;4952525;29;20584;-92
2023/07/27 01:43:49;;;;;;;11.35;8.00;;;12.90;99.90;;;;;;4919654;29;20793;-91
2023/07/27 01:46:16;;;;;;;11.30;7.90;;;12.50;99.90;;;;;;4919904;29;20460;-92
2023/07/27 01:48:43;;;;;;;12.00;8.35;;;12.30;99.90;;;;;;4920496;29;20884;-92
2023/07/27 01:51:10;;;;;;;12.65;8.30;;;12.40;99.90;;;;;;4917754;29;20901;-93
2023/07/27 01:53:37;;;;;;;11.45;8.40;;;12.50;99.90;;;;;;4920988;29;20420;-93
2023/07/27 01:56:05;;;;;;;10.30;8.27;;;12.70;99.90;;;;;;4918265;29;20984;-92
2023/07/27 01:58:31;;;;;;;11.30;8.18;;;12.40;99.90;;;;;;4920494;29;20414;-92
2023/07/27 02:00:58;;;;;;;11.32;8.20;;;12.60;99.90;;;;;;4918528;29;20534;-93
2023/07/27 02:03:25;;;;;;;12.68;8.55;;;12.60;99.90;;;;;;4919291;29;20441;-91
2023/07/27 02:05:51;;;;;;;10.80;8.20;;;12.50;99.90;;;;;;4920265;29;20413;-93
2023/07/27 02:08:16;;;;;;;10.73;8.20;;;12.50;99.90;;;;;;4918723;29;21064;-91
2023/07/27 02:10:47;;;;;;;10.85;8.30;;;12.70;99.90;;;;;;4920569;29;20425;-92
2023/07/27 02:13:26;;;;;;;10.48;8.18;;;12.80;99.90;;;;;;4917471;29;20418;-94
2023/07/27 02:16:01;;;;;;;10.48;8.13;;;12.60;99.90;;;;;;4920106;29;20414;-92
2023/07/27 02:18:29;;;;;;;11.13;8.52;;;12.60;99.90;;;;;;4918208;29;20854;-92
2023/07/27 02:20:55;;;;;;;10.35;7.75;;;12.30;99.90;;;;;;4917607;29;20429;-92
2023/07/27 02:23:23;;;;;;;11.63;8.05;;;12.70;99.90;;;;;;4919001;29;20438;-93
2023/07/27 02:25:49;;;;;;;9.83;7.80;;;12.60;99.90;;;;;;4916429;29;21014;-91
2023/07/27 02:28:14;;;;;;;11.37;7.90;;;12.90;99.90;;;;;;4919840;29;20413;-92
2023/07/27 02:30:40;;;;;;;10.38;8.00;;;13.00;99.90;;;;;;4917872;29;20449;-90
2023/07/27 02:33:06;;;;;;;11.47;7.70;;;12.90;99.90;;;;;;4919946;29;20913;-92
2023/07/27 02:35:32;;;;;;;10.17;8.10;;;12.90;99.90;;;;;;4918138;29;20413;-93
2023/07/27 02:37:57;;;;;;;11.33;7.33;;;12.90;99.90;;;;;;4918870;29;20793;-92
2023/07/27 02:40:23;;;;;;;10.82;8.40;;;12.80;99.90;;;;;;4919277;29;20444;-93
2023/07/27 02:42:49;;;;;;;10.70;8.07;;;12.80;99.90;;;;;;4917847;29;20481;-92
2023/07/27 02:45:14;;;;;;;10.77;8.43;;;12.80;99.90;;;;;;4919817;29;20486;-92
2023/07/27 02:47:40;;;;;;;9.87;7.77;;;13.20;99.90;;;;;;4916812;29;20422;-92
2023/07/27 02:50:06;;;;;;;10.85;8.10;;;13.10;99.90;;;;;;4920070;29;20428;-93
2023/07/27 02:52:32;;;;;;;10.25;7.80;;;12.90;99.90;;;;;;4917305;29;20481;-94
2023/07/27 02:54:58;;;;;;;10.25;8.20;;;13.20;99.90;;;;;;4919375;29;20500;-92
2023/07/27 02:57:23;;;;;;;10.37;7.70;;;13.20;99.90;;;;;;4918462;29;20425;-93
2023/07/27 02:59:49;;;;;;;9.95;7.65;;;13.00;99.90;;;;;;4918022;29;20441;-94
2023/07/27 03:02:15;;;;;;;9.80;8.07;;;13.90;99.90;;;;;;4919251;29;20648;-93
2023/07/27 03:04:41;;;;;;;9.90;7.97;;;13.90;99.90;;;;;;4916543;29;20434;-92
2023/07/27 03:07:06;;;;;;;10.48;7.30;;;13.20;99.90;;;;;;4919302;29;20417;-92
2023/07/27 03:09:33;;;;;;;10.00;7.53;;;13.20;99.90;;;;;;4917131;29;20421;-92
2023/07/27 03:11:58;;;;;;;9.65;7.55;;;13.70;99.90;;;;;;4919041;29;20464;-92
2023/07/27 03:14:24;;;;;;;9.60;7.40;;;13.50;99.90;;;;;;4917666;29;20505;-92
2023/07/27 03:16:50;;;;;;;10.83;8.00;;;13.70;99.90;;;;;;4949618;29;20422;-93
2023/07/27 03:19:15;;;;;;;11.45;7.88;;;13.50;99.90;;;;;;4918432;29;20921;-93
2023/07/27 03:21:41;;;;;;;10.20;7.73;;;13.00;99.90;;;;;;4917236;29;20893;-93
2023/07/27 03:24:07;;;;;;;11.00;8.05;;;13.50;99.90;;;;;;4919003;29;20503;-93
2023/07/27 03:26:33;;;;;;;10.77;8.32;;;14.00;99.90;;;;;;4916270;29;20469;-92
2023/07/27 03:28:58;;;;;;;9.77;7.90;;;13.50;99.90;;;;;;4918835;29;20410;-92
2023/07/27 03:31:26;;;;;;;9.65;8.52;;;13.10;99.90;;;;;;4916687;29;20605;-92
2023/07/27 03:33:52;;;;;;;11.02;8.35;;;13.40;99.90;;;;;;4918559;29;20501;-92
2023/07/27 03:36:19;;;;;;;12.73;9.17;;;13.50;99.90;;;;;;4917906;29;20468;-92
2023/07/27 03:38:45;;;;;;;11.70;8.90;;;13.40;99.90;;;;;;4917628;29;21171;-93
2023/07/27 03:41:14;;;;;;;11.77;9.43;;;13.50;99.90;;;;;;4919002;29;20429;-93
2023/07/27 03:43:40;;;;;;;10.73;8.50;;;13.50;99.90;;;;;;4915885;29;20437;-93
2023/07/27 03:46:06;;;;;;;12.40;9.32;;;13.70;99.90;;;;;;4918726;29;20453;-94
2023/07/27 03:48:31;;;;;;;13.40;9.83;;;13.60;99.90;;;;;;4916220;29;20450;-92
2023/07/27 03:51:01;;;;;;;13.15;10.00;;;13.60;99.90;;;;;;4919002;29;20445;-92
2023/07/27 03:53:28;;;;;;;11.98;9.43;;;13.60;99.90;;;;;;4948481;28;20441;-92
2023/07/27 03:55:53;;;;;;;15.18;10.63;;;13.50;99.90;;;;;;4916872;29;20424;-92
2023/07/27 03:58:19;;;;;;;13.65;9.77;;;13.50;99.90;;;;;;4949755;29;20439;-91
2023/07/27 04:00:45;;;;;;;16.13;10.93;;;13.40;99.90;;;;;;4916164;29;20876;-92
2023/07/27 04:03:10;;;;;;;14.38;10.75;;;13.50;99.90;;;;;;4950284;29;20517;-92
2023/07/27 04:05:36;;;;;;;13.90;11.07;;;13.70;99.90;;;;;;4947245;29;20975;-92
2023/07/27 04:08:02;;;;;;;15.90;11.25;;;13.60;99.90;;;;;;4950093;29;20429;-93
2023/07/27 04:10:29;;;;;;;16.10;11.35;;;13.50;99.90;;;;;;4948073;29;20500;-92
2023/07/27 04:12:55;;;;;;;16.13;11.05;;;13.50;99.90;;;;;;4949411;29;20433;-92
2023/07/27 04:15:21;;;;;;;14.07;10.82;;;13.80;99.90;;;;;;4949196;29;20414;-94
2023/07/27 04:17:47;;;;;;;13.60;11.00;;;13.80;99.90;;;;;;4947777;29;20418;-91
2023/07/27 04:20:12;;;;;;;16.27;11.57;;;14.20;99.90;;;;;;4950020;29;20429;-91
2023/07/27 04:22:38;;;;;;;13.55;11.00;;;13.80;99.90;;;;;;4946939;29;20410;-91
2023/07/27 04:25:04;;;;;;;15.97;11.23;;;13.90;99.90;;;;;;4949729;29;20437;-92
2023/07/27 04:27:30;;;;;;;17.48;11.85;;;13.50;99.90;;;;;;4947374;29;20421;-92
2023/07/27 04:29:56;;;;;;;16.05;12.00;;;13.80;99.90;;;;;;4949659;29;20449;-92
2023/07/27 04:32:21;;;;;;;16.40;12.83;;;14.00;99.90;;;;;;4947909;29;20503;-92
2023/07/27 04:34:47;;;;;;;18.23;12.85;;;13.60;99.90;;;;;;4948632;29;20421;-92
2023/07/27 04:37:13;;;;;;;17.90;12.75;;;14.10;99.90;;;;;;4949675;29;20433;-91
2023/07/27 04:39:38;;;;;;;16.83;13.30;;;14.00;99.90;;;;;;4947436;29;20460;-92
2023/07/27 04:42:04;;;;;;;19.63;14.10;;;13.80;99.90;;;;;;4949308;29;20406;-90
2023/07/27 04:44:30;;;;;;;22.07;15.10;;;13.60;99.90;;;;;;4946824;29;20442;-92
2023/07/27 04:46:56;;;;;;;21.60;14.27;;;13.70;99.90;;;;;;4949154;29;20425;-92
2023/07/27 04:49:21;;;;;;;24.00;16.60;;;13.60;99.90;;;;;;4947242;29;20414;-91
2023/07/27 04:51:47;;;;;;;25.77;16.50;;;14.20;99.90;;;;;;4949317;29;20509;-93
2023/07/27 04:54:12;;;;;;;25.55;17.38;;;13.70;99.90;;;;;;4948500;29;20445;-93
2023/07/27 04:56:38;;;;;;;27.27;17.90;;;13.90;99.90;;;;;;4947863;29;21041;-90
2023/07/27 04:59:04;;;;;;;26.77;17.80;;;13.80;99.90;;;;;;4949536;29;20917;-93
2023/07/27 05:01:30;;;;;;;29.48;18.33;;;13.90;99.90;;;;;;4946486;29;20909;-92
2023/07/27 05:03:55;;;;;;;26.10;18.43;;;13.80;99.90;;;;;;4949225;29;20520;-92
2023/07/27 05:06:21;;;;;;;29.25;19.15;;;13.80;99.90;;;;;;4947136;28;20418;-92
2023/07/27 05:08:47;;;;;;;28.33;19.00;;;14.00;99.90;;;;;;4949254;29;20410;-93
2023/07/27 05:11:12;;;;;;;30.92;20.40;;;13.80;99.90;;;;;;4947389;29;20417;-92
2023/07/27 05:13:38;;;;;;;28.47;19.73;;;14.10;99.90;;;;;;4948104;29;20909;-92
2023/07/27 05:16:04;;;;;;;23.75;17.98;;;13.90;99.90;;;;;;4948540;29;20934;-93
2023/07/27 05:18:29;;;;;;;25.80;18.58;;;14.00;99.90;;;;;;4947344;29;20477;-92
2023/07/27 05:20:58;;;;;;;28.13;19.70;;;14.10;99.90;;;;;;4949163;29;20402;-92
2023/07/27 05:23:24;;;;;;;25.35;18.08;;;14.00;99.90;;;;;;4944729;28;20441;-91
2023/07/27 05:25:50;;;;;;;25.90;18.67;;;14.00;99.90;;;;;;4916812;29;20527;-91
2023/07/27 05:28:19;;;;;;;31.88;20.90;;;14.00;99.90;;;;;;4914992;29;20418;-94
2023/07/27 05:30:45;;;;;;;26.52;17.95;;;14.30;99.90;;;;;;4916806;28;20406;-92
2023/07/27 05:33:11;;;;;;;24.67;18.27;;;14.00;99.90;;;;;;4916641;28;20765;-91
2023/07/27 05:35:37;;;;;;;24.35;18.55;;;14.10;99.90;;;;;;4915052;29;20499;-92
2023/07/27 05:38:03;;;;;;;24.33;18.40;;;14.20;99.90;;;;;;4917042;29;20420;-92
2023/07/27 05:40:29;;;;;;;27.50;19.70;;;14.40;99.90;;;;;;4913612;29;21117;-93
2023/07/27 05:42:54;;;;;;;26.27;18.50;;;14.40;99.90;;;;;;4940591;29;20756;-93
2023/07/27 05:45:20;;;;;;;25.43;18.70;;;14.30;99.90;;;;;;4933673;29;20903;-92
2023/07/27 05:47:45;;;;;;;25.27;18.63;;;14.30;99.90;;;;;;4929131;29;20511;-93
2023/07/27 05:50:11;;;;;;;23.75;17.88;;;14.40;99.90;;;;;;4927644;29;20922;-93
2023/07/27 05:52:37;;;;;;;25.25;18.77;;;14.30;99.90;;;;;;4928951;29;20795;-93
2023/07/27 05:55:03;;;;;;;19.60;15.83;;;14.20;99.90;;;;;;4929308;29;20466;-95
2023/07/27 05:57:28;;;;;;;21.50;16.42;;;14.20;99.90;;;;;;4912082;29;20466;-92
2023/07/27 05:59:54;;;;;;;21.63;15.73;;;14.70;99.90;;;;;;4929321;29;20824;-93
2023/07/27 06:02:20;;;;;;;20.43;15.23;;;14.50;99.90;;;;;;4930763;28;20847;-94
2023/07/27 06:04:46;;;;;;;19.02;15.02;;;14.30;99.90;;;;;;4931744;29;20442;-94
2023/07/27 06:07:11;;;;;;;21.37;15.57;;;14.50;99.90;;;;;;4930263;29;20501;-93
2023/07/27 06:09:37;;;;;;;15.88;12.55;;;14.40;99.90;;;;;;4932354;29;20465;-92
2023/07/27 06:12:11;;;;;;;16.58;12.68;;;14.70;99.90;;;;;;4915368;29;20418;-91
2023/07/27 06:14:40;;;;;;;18.70;13.65;;;14.50;99.90;;;;;;4915432;28;20457;-91
2023/07/27 06:17:06;;;;;;;17.00;12.70;;;14.50;99.90;;;;;;4916899;28;20418;-93
2023/07/27 06:19:33;;;;;;;15.68;11.70;;;14.40;99.90;;;;;;4917823;29;20409;-92
2023/07/27 06:21:58;;;;;;;13.35;11.27;;;14.90;99.90;;;;;;4921773;29;20500;-94
2023/07/27 06:24:27;;;;;;;13.70;11.27;;;14.70;99.90;;;;;;4925309;29;20430;-94
2023/07/27 06:27:11;;;;;;;16.35;11.88;;;14.70;99.90;;;;;;4926114;29;20418;-94
2023/07/27 06:29:37;;;;;;;15.68;11.65;;;15.50;99.90;;;;;;4921043;29;20417;-93
2023/07/27 06:32:03;;;;;;;15.13;11.37;;;15.40;99.90;;;;;;4955777;29;20457;-94
2023/07/27 06:34:29;;;;;;;14.50;11.17;;;14.90;99.90;;;;;;4953899;29;20469;-93
2023/07/27 06:41:26;;;;;;;13.85;10.73;;;15.00;99.90;;;;;;4924144;29;20428;-94
2023/07/27 06:43:52;;;;;;;14.07;10.77;;;15.00;99.90;;;;;;4908454;29;20441;-94
2023/07/27 06:46:27;;;;;;;12.53;10.07;;;15.10;99.90;;;;;;4913133;29;20413;-94
2023/07/27 06:49:29;;;;;;;12.05;10.20;;;15.20;99.90;;;;;;4961362;29;20929;-94
2023/07/27 06:52:02;;;;;;;11.50;9.55;;;15.20;99.90;;;;;;4916955;29;20422;-93
2023/07/27 06:54:29;;;;;;;11.50;10.07;;;15.20;99.90;;;;;;4946141;29;20445;-94
2023/07/27 06:57:15;;;;;;;9.18;8.20;;;15.40;99.90;;;;;;4960456;29;20410;-94
2023/07/27 06:59:50;;;;;;;10.93;9.15;;;15.40;99.90;;;;;;4929231;29;20433;-94
2023/07/27 07:02:41;;;;;;;9.63;8.53;;;16.00;99.90;;;;;;4929972;29;20430;-94
2023/07/27 07:12:57;;;;;;;10.30;8.15;;;15.70;99.90;;;;;;1244778;23;22086;-94
2023/07/27 07:19:30;;;;;;;9.07;8.15;;;15.80;99.90;;;;;;4908146;29;20423;-93
2023/07/27 07:22:08;;;;;;;8.48;7.57;;;16.10;99.90;;;;;;4864856;29;20456;-95
2023/07/27 07:25:01;;;;;;;9.65;8.35;;;16.30;99.90;;;;;;4865413;29;20436;-93
2023/07/27 07:27:37;;;;;;;8.20;7.05;;;16.20;99.90;;;;;;4849909;29;20440;-94
2023/07/27 07:30:16;;;;;;;7.93;7.13;;;16.40;99.90;;;;;;4938556;28;20410;-93
2023/07/27 07:33:02;;;;;;;7.93;7.07;;;16.40;99.90;;;;;;4960778;28;20434;-93
2023/07/27 07:35:39;;;;;;;6.38;5.65;;;16.50;99.90;;;;;;4966065;28;20461;-95
2023/07/27 07:38:06;;;;;;;6.88;6.15;;;16.60;99.90;;;;;;4965952;28;20925;-94
2023/07/27 07:40:32;;;;;;;7.45;5.60;;;16.50;99.90;;;;;;4972613;28;20417;-93
2023/07/27 07:43:00;;;;;;;7.18;6.00;;;17.30;99.90;;;;;;4985218;28;20482;-94
2023/07/27 07:45:38;;;;;;;5.57;5.07;;;16.70;99.90;;;;;;4988242;28;20496;-93
2023/07/27 07:48:04;;;;;;;5.72;5.22;;;16.70;99.90;;;;;;4980979;28;20452;-92
2023/07/27 07:50:44;;;;;;;5.82;5.22;;;16.60;99.90;;;;;;4975076;28;20444;-94
2023/07/27 07:53:10;;;;;;;5.15;4.65;;;16.60;99.90;;;;;;4985304;28;20396;-93
2023/07/27 07:56:03;;;;;;;4.75;4.28;;;16.80;99.90;;;;;;4979269;28;20425;-95
2023/07/27 07:58:49;;;;;;;3.78;3.33;;;16.60;99.90;;;;;;4875813;29;20854;-94
2023/07/27 08:01:26;;;;;;;3.40;2.90;;;17.50;99.90;;;;;;4877500;29;20427;-95
2023/07/27 08:04:23;;;;;;;;;;;;;;;;;;;;;
2023/07/27 08:07:06;;;;;;;2.87;2.57;;;16.80;99.90;;;;;;4886764;29;20422;-95
2023/07/27 08:09:31;;;;;;;3.17;2.60;;;16.70;99.90;;;;;;4909312;28;20415;-94
2023/07/27 08:11:57;;;;;;;3.58;2.67;;;17.20;99.90;;;;;;4958976;28;20421;-94
2023/07/27 08:14:24;;;;;;;3.17;2.77;;;16.80;99.90;;;;;;4974250;28;20480;-95
2023/07/27 08:25:44;;;;;;;2.80;2.50;;;16.90;99.90;;;;;;5145860;23;20429;-95
2023/07/27 08:28:53;;;;;;;2.63;2.20;;;16.90;99.90;;;;;;4912216;29;20442;-94
2023/07/27 08:39:39;;;;;;;3.30;3.00;;;16.80;99.90;;;;;;5006786;28;20438;-93
2023/07/27 08:45:13;;;;;;;3.30;2.90;;;16.70;99.90;;;;;;4927548;29;20483;-94
2023/07/27 08:47:59;;;;;;;3.13;2.83;;;17.00;99.90;;;;;;4978732;28;20421;-94
2023/07/27 08:50:29;;;;;;;3.75;3.35;;;16.90;99.90;;;;;;4943932;28;20513;-95
2023/07/27 08:52:55;;;;;;;4.40;4.00;;;16.90;99.90;;;;;;4954038;28;20485;-94
2023/07/27 08:55:35;;;;;;;4.18;3.78;;;17.00;99.90;;;;;;4963853;28;20422;-94
2023/07/27 08:58:02;;;;;;;4.30;3.90;;;17.00;99.90;;;;;;4954821;28;20506;-94
2023/07/27 09:00:28;;;;;;;4.07;3.65;;;17.00;99.90;;;;;;4956517;28;20406;-94
2023/07/27 09:02:59;;;;;;;3.65;3.35;;;17.00;99.90;;;;;;4965253;28;20419;-94
2023/07/27 09:05:45;;;;;;;3.58;2.50;;;17.50;99.90;;;;;;4959815;28;20442;-95
2023/07/27 09:08:16;;;;;;;2.35;1.70;;;17.00;99.90;;;;;;4961231;28;20456;-92
2023/07/27 09:14:37;;;;;;;1.80;1.58;;;17.00;99.90;;;;;;4973190;28;20469;-95
2023/07/27 09:17:04;;;;;;;1.60;0.95;;;17.00;99.90;;;;;;4956196;28;20410;-95
2023/07/27 09:19:47;;;;;;;1.30;1.00;;;16.90;99.90;;;;;;4961722;28;20414;-93
2023/07/27 09:22:13;;;;;;;1.40;1.05;;;16.90;99.90;;;;;;4947877;28;20427;-92
2023/07/27 09:24:40;;;;;;;1.60;1.10;;;17.00;99.90;;;;;;4954713;28;20431;-95
2023/07/27 09:27:15;;;;;;;2.60;1.50;;;16.60;99.90;;;;;;4951646;28;20446;-94
2023/07/27 09:29:41;;;;;;;2.10;1.90;;;16.70;99.90;;;;;;4955481;28;20411;-91
2023/07/27 09:32:09;;;;;;;2.17;1.98;;;17.20;99.90;;;;;;4952989;28;20415;-92
2023/07/27 09:34:39;;;;;;;2.67;2.47;;;16.60;99.90;;;;;;4954875;28;20418;-92
2023/07/27 09:37:05;;;;;;;2.50;2.30;;;16.80;99.90;;;;;;4942206;28;20624;-92
2023/07/27 09:39:36;;;;;;;3.30;3.00;;;16.80;99.90;;;;;;4934189;28;20548;-93
2023/07/27 09:42:03;;;;;;;3.72;3.40;;;16.90;99.90;;;;;;4936629;28;20424;-93
2023/07/27 09:44:29;;;;;;;4.00;3.40;;;16.80;99.90;;;;;;4933390;28;20615;-93
2023/07/27 09:46:54;;;;;;;3.90;3.60;;;17.00;99.90;;;;;;4951761;28;20409;-90
2023/07/27 09:57:20;;;;;;;2.60;2.40;;;17.30;99.90;;;;;;4912513;29;20405;-95
2023/07/27 10:26:52;;;;;;;3.10;2.85;;;17.80;99.90;;;;;;5000872;28;20442;-93
2023/07/27 10:41:30;;;;;;;;;;;;;;;;;;;;;
2023/07/27 10:47:48;;;;;;;5.00;4.60;;;18.00;99.90;;;;;;4975052;28;20481;-94
2023/07/27 10:50:19;;;;;;;5.40;5.00;;;18.00;99.90;;;;;;4946232;28;20428;-94
2023/07/27 10:52:48;;;;;;;5.55;5.15;;;18.10;99.90;;;;;;4929668;29;20410;-93
2023/07/27 10:58:50;;;;;;;5.93;5.53;;;18.00;99.90;;;;;;4906373;29;20506;-94
2023/07/27 11:01:26;;;;;;;6.13;5.72;;;18.00;99.90;;;;;;5084151;23;20442;-94
2023/07/27 11:04:20;;;;;;;;;;;;;;;;;;;;;
2023/07/27 11:39:17;;;;;;;;;;;;;;;;;;;;;
2023/07/27 11:53:50;;;;;;;8.00;7.40;;;18.90;99.90;;;;;;5011400;28;20473;-94
2023/07/27 11:56:16;;;;;;;9.02;8.32;;;19.00;99.90;;;;;;4993115;28;20405;-93
2023/07/27 11:58:44;;;;;;;7.90;7.30;;;19.60;99.90;;;;;;4990520;28;20499;-94
2023/07/27 12:01:27;;;;;;;9.73;8.93;;;19.40;99.90;;;;;;5011427;28;20456;-93
2023/07/27 12:03:53;;;;;;;8.98;8.27;;;19.40;99.90;;;;;;4992493;28;20463;-93
2023/07/27 12:06:28;;;;;;;8.27;7.68;;;19.60;99.90;;;;;;4990294;28;20421;-94
2023/07/27 12:08:55;;;;;;;5.95;5.55;;;19.70;99.90;;;;;;4994914;28;20413;-94
2023/07/27 12:11:26;;;;;;;7.25;6.65;;;19.90;99.90;;;;;;4990520;28;20400;-94
2023/07/27 12:13:51;;;;;;;8.60;8.00;;;20.20;99.90;;;;;;4992385;28;20917;-94
2023/07/27 12:16:25;;;;;;;5.63;5.22;;;19.90;99.90;;;;;;4990320;28;20408;-93
2023/07/27 14:56:25;;;;;;;2.20;0.43;;;20.80;99.90;;;;;;4955991;29;20462;-94
2023/07/27 14:58:57;;;;;;;0.82;0.28;;;20.70;99.90;;;;;;4935248;29;20422;-94
2023/07/27 15:06:58;;;;;;;1.65;0.30;;;20.50;99.90;;;;;;5318976;23;20439;-95
2023/07/27 15:41:35;;;;;;;1.23;0.52;;;20.40;99.90;;;;;;4931838;29;20443;-94
2023/07/27 15:44:01;;;;;;;1.60;0.90;;;20.20;99.90;;;;;;4918421;29;20440;-94
2023/07/27 15:49:02;;;;;;;0.80;0.50;;;19.90;99.90;;;;;;4986608;28;20439;-93
2023/07/27 15:51:31;;;;;;;2.30;0.50;;;19.50;99.90;;;;;;4973847;28;20409;-93
2023/07/27 15:54:02;;;;;;;2.53;1.23;;;19.80;99.90;;;;;;4992807;28;20418;-95
2023/07/27 15:57:10;;;;;;;2.17;1.02;;;19.70;99.90;;;;;;4963412;28;20407;-94
2023/07/27 15:59:35;;;;;;;1.40;0.73;;;19.80;99.90;;;;;;4960256;28;20438;-94
2023/07/27 16:02:01;;;;;;;1.10;0.60;;;19.80;99.90;;;;;;4934046;29;20424;-93
2023/07/27 16:04:29;;;;;;;1.85;0.60;;;19.70;99.90;;;;;;4934266;29;20429;-95
2023/07/27 16:07:15;;;;;;;1.98;0.43;;;20.00;99.90;;;;;;4940569;29;20417;-95
2023/07/27 16:09:41;;;;;;;2.70;0.30;;;19.70;99.90;;;;;;4934081;29;20457;-93
2023/07/27 16:12:13;;;;;;;0.43;0.20;;;19.80;99.90;;;;;;4936113;29;20421;-94
2023/07/27 16:14:49;;;;;;;0.57;0.20;;;19.70;99.90;;;;;;4937739;29;20406;-95
2023/07/27 16:17:18;;;;;;;2.15;0.15;;;19.50;99.90;;;;;;4951386;29;20508;-94
2023/07/27 16:19:44;;;;;;;1.15;0.10;;;19.60;99.90;;;;;;4933638;29;20466;-93
2023/07/27 16:22:10;;;;;;;3.47;0.20;;;19.70;99.90;;;;;;4931591;29;20418;-93
2023/07/27 16:24:36;;;;;;;1.00;0.10;;;19.40;99.90;;;;;;4933898;29;20449;-93
2023/07/27 16:27:02;;;;;;;2.10;0.20;;;19.50;99.90;;;;;;4930996;29;20410;-93
2023/07/27 16:29:27;;;;;;;0.43;0.10;;;19.40;99.90;;;;;;4934144;29;20402;-93
2023/07/27 16:31:53;;;;;;;0.55;0.10;;;19.60;99.90;;;;;;4932083;29;20512;-93
2023/07/27 16:34:19;;;;;;;0.43;0.10;;;19.60;99.90;;;;;;4932460;29;20458;-92
2023/07/27 16:36:59;;;;;;;0.90;0.10;;;19.70;99.90;;;;;;4934326;29;20422;-93
2023/07/27 16:39:25;;;;;;;1.33;0.10;;;19.40;99.90;;;;;;4923380;29;20461;-94
2023/07/27 16:41:51;;;;;;;1.00;0.10;;;19.40;99.90;;;;;;4935175;29;20422;-93
2023/07/27 16:44:19;;;;;;;1.50;0.10;;;19.40;99.90;;;;;;4936233;29;20850;-93
2023/07/27 16:46:45;;;;;;;2.27;0.10;;;19.40;99.90;;;;;;4943892;28;20429;-93
2023/07/27 16:49:14;;;;;;;0.73;0.20;;;19.40;99.90;;;;;;4936768;29;20434;-94
2023/07/27 16:51:54;;;;;;;0.50;0.10;;;19.50;99.90;;;;;;4947844;29;20417;-93
2023/07/27 17:03:42;;;;;;;2.58;0.40;;;19.30;99.90;;;;;;4935156;29;20439;-94
2023/07/27 17:06:12;;;;;;;1.65;0.22;;;19.20;99.90;;;;;;4942801;28;20410;-94
2023/07/27 17:09:04;;;;;;;;;;;;;;;;;;;;;
2023/07/27 17:11:35;;;;;;;2.50;0.30;;;19.20;99.90;;;;;;4983932;28;20454;-94
2023/07/27 17:14:04;;;;;;;1.70;0.20;;;19.00;99.90;;;;;;4969422;28;20419;-94
2023/07/27 17:16:36;;;;;;;1.77;0.20;;;19.10;99.90;;;;;;4948116;28;20440;-94
2023/07/27 17:19:01;;;;;;;2.50;0.40;;;19.20;99.90;;;;;;4936027;28;20895;-93
2023/07/27 17:21:27;;;;;;;3.00;0.50;;;19.10;99.90;;;;;;4941218;28;20440;-93
2023/07/27 17:23:53;;;;;;;2.85;0.40;;;19.20;99.90;;;;;;4937255;28;20475;-94
2023/07/27 17:26:19;;;;;;;0.93;0.25;;;19.40;99.90;;;;;;4942467;28;20924;-93
2023/07/27 17:28:47;;;;;;;2.20;0.20;;;19.20;99.90;;;;;;4956073;28;20434;-93
2023/07/27 17:31:13;;;;;;;2.50;0.50;;;19.20;99.90;;;;;;4955857;28;20433;-93
2023/07/27 17:33:39;;;;;;;4.27;0.87;;;19.20;99.90;;;;;;4954818;28;20411;-93
2023/07/27 17:36:04;;;;;;;5.43;1.10;;;19.20;99.90;;;;;;4953946;28;20740;-93
2023/07/27 17:38:32;;;;;;;5.07;1.88;;;19.40;99.90;;;;;;4954467;28;20537;-93
2023/07/27 17:41:01;;;;;;;4.20;1.80;;;19.10;99.90;;;;;;4954209;28;20493;-93
2023/07/27 17:43:27;;;;;;;5.38;2.20;;;19.10;99.90;;;;;;4953063;28;20418;-93
2023/07/27 17:45:54;;;;;;;4.93;2.40;;;19.10;99.90;;;;;;4950784;23;20454;-92
2023/07/27 17:48:22;;;;;;;5.82;2.50;;;19.10;99.90;;;;;;4910609;29;20444;-93
2023/07/27 17:50:57;;;;;;;10.68;3.30;;;19.20;99.90;;;;;;4913288;29;20412;-94
2023/07/27 17:53:24;;;;;;;6.20;2.85;;;19.10;99.90;;;;;;4913313;29;20812;-93
2023/07/27 17:55:50;;;;;;;4.28;2.22;;;19.20;99.90;;;;;;4909493;29;20490;-93
2023/07/27 17:58:16;;;;;;;3.72;2.30;;;19.10;99.90;;;;;;4894934;29;20677;-92
2023/07/27 18:00:41;;;;;;;6.17;2.50;;;19.10;99.90;;;;;;4894011;29;20413;-93
2023/07/27 18:03:07;;;;;;;7.28;2.80;;;19.10;99.90;;;;;;4913213;29;20480;-93
2023/07/27 18:05:33;;;;;;;6.73;3.07;;;19.10;99.90;;;;;;4912872;29;20471;-92
2023/07/27 18:07:58;;;;;;;7.07;2.88;;;19.20;99.90;;;;;;4913934;29;20412;-93
2023/07/27 18:10:25;;;;;;;4.55;2.78;;;19.00;99.90;;;;;;4911673;29;20506;-93
2023/07/27 18:12:50;;;;;;;5.00;2.47;;;19.10;99.90;;;;;;4895702;29;20501;-94
2023/07/27 18:15:16;;;;;;;5.60;2.40;;;19.10;99.90;;;;;;4898476;29;20413;-94
2023/07/27 18:23:11;;;;;;;5.03;1.70;;;19.10;99.90;;;;;;3291394;23;20688;-92
2023/07/27 18:25:49;;;;;;;;;;;;;;;;;;;;;
2023/07/27 18:28:15;;;;;;;6.15;1.90;;;19.00;99.90;;;;;;4955504;29;20426;-94
2023/07/27 18:30:49;;;;;;;4.85;1.92;;;18.60;99.90;;;;;;4940811;29;20426;-93
2023/07/27 18:44:37;;;;;;;5.90;2.42;;;18.90;99.90;;;;;;5277625;23;20431;-94
2023/07/27 18:58:53;;;;;;;5.53;2.73;;;18.70;99.90;;;;;;5318896;23;20457;-93
2023/07/27 19:01:24;;;;;;;6.18;2.70;;;18.70;99.90;;;;;;4967782;28;20436;-94
2023/07/27 19:03:50;;;;;;;4.97;2.17;;;18.70;99.90;;;;;;4965144;28;20500;-93
2023/07/27 19:06:51;;;;;;;5.00;2.53;;;19.10;99.90;;;;;;4969185;28;20411;-93
2023/07/27 19:09:17;;;;;;;6.23;3.33;;;18.40;99.90;;;;;;4963856;28;20924;-92